createdAt,value
2022-12-22T00:00:52.315Z,12.10
2022-12-22T00:03:54.274Z,12.10
2022-12-22T00:06:56.178Z,12.10
2022-12-22T00:09:58.151Z,12.10
2022-12-22T00:13:00.279Z,12.20
2022-12-22T00:16:02.303Z,12.10
2022-12-22T00:19:11.509Z,12.00
2022-12-22T00:22:24.802Z,12.00
2022-12-22T00:25:26.885Z,12.00
2022-12-22T00:28:31.321Z,12.10
2022-12-22T00:31:33.251Z,12.00
2022-12-22T00:34:41.440Z,12.00
2022-12-22T00:37:43.311Z,12.00
2022-12-22T00:40:45.237Z,12.00
2022-12-22T00:43:47.105Z,11.90
2022-12-22T00:46:49.027Z,11.80
2022-12-22T00:49:51.195Z,11.70
2022-12-22T00:52:53.216Z,11.70
2022-12-22T00:55:55.184Z,11.70
2022-12-22T00:58:59.650Z,11.70
2022-12-22T01:02:01.591Z,11.70
2022-12-22T01:05:03.635Z,11.70
2022-12-22T01:08:05.732Z,11.60
2022-12-22T01:11:08.222Z,11.60
2022-12-22T01:14:12.702Z,11.70
2022-12-22T01:17:14.792Z,11.60
2022-12-22T01:20:16.754Z,11.60
2022-12-22T01:23:18.793Z,11.60
2022-12-22T01:26:21.427Z,11.50
2022-12-22T01:29:23.267Z,11.60
2022-12-22T01:32:25.297Z,11.50
2022-12-22T01:35:31.426Z,11.60
2022-12-22T01:38:33.403Z,11.60
2022-12-22T01:41:36.130Z,11.60
2022-12-22T01:44:38.031Z,11.60
2022-12-22T01:47:39.977Z,11.60
2022-12-22T01:50:42.793Z,11.70
2022-12-22T01:53:45.519Z,11.60
2022-12-22T01:56:47.995Z,11.70
2022-12-22T01:59:50.023Z,11.70
2022-12-22T02:02:52.072Z,11.80
2022-12-22T02:06:31.936Z,11.90
2022-12-22T02:10:02.972Z,11.80
2022-12-22T02:13:22.273Z,11.90
2022-12-22T02:16:35.627Z,11.80
2022-12-22T02:20:07.451Z,11.80
2022-12-22T02:23:15.050Z,11.80
2022-12-22T02:26:33.686Z,11.90
2022-12-22T02:29:43.354Z,11.90
2022-12-22T02:32:47.161Z,11.90
2022-12-22T02:36:06.259Z,11.80
2022-12-22T02:39:39.205Z,11.80
2022-12-22T02:43:02.297Z,11.80
2022-12-22T02:46:25.839Z,11.70
2022-12-22T02:49:53.545Z,11.70
2022-12-22T02:52:56.135Z,11.70
2022-12-22T02:56:02.640Z,11.70
2022-12-22T02:59:04.831Z,11.70
2022-12-22T03:02:06.915Z,11.70
2022-12-22T03:05:08.926Z,11.70
2022-12-22T03:08:10.932Z,11.70
2022-12-22T03:11:15.438Z,11.70
2022-12-22T03:14:17.344Z,11.70
2022-12-22T03:17:19.311Z,11.70
2022-12-22T03:20:21.264Z,11.70
2022-12-22T03:23:23.195Z,11.80
2022-12-22T03:26:26.369Z,11.80
2022-12-22T03:29:28.735Z,11.80
2022-12-22T03:32:30.719Z,11.90
2022-12-22T03:35:32.776Z,11.80
2022-12-22T03:38:34.963Z,11.80
2022-12-22T03:41:36.935Z,11.80
2022-12-22T03:44:38.848Z,11.90
2022-12-22T03:47:40.737Z,11.90
2022-12-22T03:50:43.899Z,11.80
2022-12-22T03:53:45.891Z,11.80
2022-12-22T03:56:49.810Z,11.80
2022-12-22T03:59:51.691Z,11.80
2022-12-22T04:02:53.682Z,11.80
2022-12-22T04:05:55.625Z,11.70
2022-12-22T04:08:57.790Z,11.80
2022-12-22T04:11:59.739Z,11.80
2022-12-22T04:15:01.610Z,11.70
2022-12-22T04:18:03.619Z,11.70
2022-12-22T04:21:05.733Z,11.70
2022-12-22T04:24:10.791Z,11.60
2022-12-22T04:27:12.826Z,11.70
2022-12-22T04:30:16.319Z,11.60
2022-12-22T04:33:18.739Z,11.70
2022-12-22T04:36:20.766Z,11.70
2022-12-22T04:39:22.844Z,11.70
2022-12-22T04:42:24.952Z,11.70
2022-12-22T04:45:27.005Z,11.70
2022-12-22T04:48:30.077Z,11.70
2022-12-22T04:51:31.941Z,11.80
2022-12-22T04:54:36.692Z,11.90
2022-12-22T04:57:44.645Z,11.80
2022-12-22T05:00:49.019Z,11.90
2022-12-22T05:03:51.374Z,11.90
2022-12-22T05:06:53.605Z,11.90
2022-12-22T05:09:55.534Z,11.80
2022-12-22T05:12:57.954Z,11.90
2022-12-22T05:16:08.408Z,11.90
2022-12-22T05:19:12.943Z,11.90
2022-12-22T05:22:14.966Z,11.90
2022-12-22T05:25:18.277Z,11.80
2022-12-22T05:28:20.704Z,12.00
2022-12-22T05:31:24.988Z,12.00
2022-12-22T05:34:27.215Z,12.00
2022-12-22T05:37:29.973Z,12.00
2022-12-22T05:40:31.922Z,12.00
2022-12-22T05:43:35.216Z,12.00
2022-12-22T05:46:37.429Z,12.00
2022-12-22T05:49:40.936Z,12.10
2022-12-22T05:52:43.401Z,12.10
2022-12-22T05:55:45.724Z,12.10
2022-12-22T05:58:48.375Z,12.00
2022-12-22T06:01:50.565Z,12.10
2022-12-22T06:04:52.828Z,12.00
2022-12-22T06:07:54.835Z,12.00
2022-12-22T06:10:58.604Z,12.00
2022-12-22T06:14:00.688Z,12.00
2022-12-22T06:17:02.930Z,12.00
2022-12-22T06:20:06.876Z,12.00
2022-12-22T06:23:10.569Z,12.00
2022-12-22T06:26:12.545Z,11.90
2022-12-22T06:29:14.591Z,11.90
2022-12-22T06:32:16.634Z,11.90
2022-12-22T06:35:18.779Z,11.90
2022-12-22T06:38:20.756Z,11.90
2022-12-22T06:41:23.034Z,11.90
2022-12-22T06:44:24.980Z,11.90
2022-12-22T06:47:27.406Z,11.80
2022-12-22T06:50:29.583Z,11.90
2022-12-22T06:53:31.583Z,11.90
2022-12-22T06:56:33.661Z,11.90
2022-12-22T06:59:35.838Z,12.00
2022-12-22T07:02:37.984Z,11.90
2022-12-22T07:05:43.382Z,11.90
2022-12-22T07:08:46.783Z,12.00
2022-12-22T07:11:55.191Z,12.10
2022-12-22T07:14:57.298Z,12.10
2022-12-22T07:17:59.469Z,12.00
2022-12-22T07:21:05.089Z,12.20
2022-12-22T07:24:07.837Z,12.20
2022-12-22T07:27:10.862Z,12.20
2022-12-22T07:30:13.363Z,12.20
2022-12-22T07:33:15.510Z,12.20
2022-12-22T07:36:20.394Z,12.20
2022-12-22T07:39:22.530Z,12.20
2022-12-22T07:42:24.584Z,12.30
2022-12-22T07:45:28.277Z,12.30
2022-12-22T07:48:30.316Z,12.40
2022-12-22T07:51:35.639Z,12.40
2022-12-22T07:54:41.726Z,12.40
2022-12-22T07:57:44.610Z,12.40
2022-12-22T08:00:46.759Z,12.40
2022-12-22T08:03:51.899Z,12.40
2022-12-22T08:06:55.355Z,12.40
2022-12-22T08:09:57.289Z,12.40
2022-12-22T08:12:59.460Z,12.40
2022-12-22T08:16:06.233Z,12.50
2022-12-22T08:19:08.454Z,12.50
2022-12-22T08:22:10.480Z,12.50
2022-12-22T08:25:12.641Z,12.60
2022-12-22T08:28:15.444Z,12.70
2022-12-22T08:31:19.415Z,12.70
2022-12-22T08:34:21.807Z,12.70
2022-12-22T08:37:29.141Z,12.70
2022-12-22T08:40:32.659Z,12.70
2022-12-22T08:43:35.280Z,13.00
2022-12-22T08:46:37.258Z,12.90
2022-12-22T08:49:39.335Z,12.90
2022-12-22T08:52:41.503Z,12.80
2022-12-22T08:55:52.097Z,12.90
2022-12-22T08:58:54.173Z,12.90
2022-12-22T09:01:56.456Z,12.80
2022-12-22T09:04:58.895Z,12.70
2022-12-22T09:08:00.906Z,12.70
2022-12-22T09:11:06.103Z,12.60
2022-12-22T09:14:09.982Z,12.40
2022-12-22T09:17:12.047Z,12.30
2022-12-22T09:20:14.648Z,12.20
2022-12-22T09:23:16.626Z,12.10
2022-12-22T09:26:21.891Z,12.10
2022-12-22T09:29:24.004Z,12.00
2022-12-22T09:32:27.418Z,12.00
2022-12-22T09:35:31.892Z,12.00
2022-12-22T09:38:34.070Z,12.10
2022-12-22T09:41:46.486Z,12.10
2022-12-22T09:44:54.467Z,12.10
2022-12-22T09:47:56.688Z,12.20
2022-12-22T09:50:58.777Z,12.10
2022-12-22T09:54:01.700Z,12.10
2022-12-22T09:57:06.756Z,12.10
2022-12-22T10:00:17.288Z,12.10
2022-12-22T10:04:00.048Z,12.10
2022-12-22T10:07:21.557Z,12.10
2022-12-22T10:10:27.553Z,12.10
2022-12-22T10:13:29.690Z,12.20
2022-12-22T10:16:32.013Z,12.20
2022-12-22T10:19:34.061Z,12.20
2022-12-22T10:22:47.773Z,12.20
2022-12-22T10:26:32.271Z,12.20
2022-12-22T10:29:26.528Z,12.20
2022-12-22T10:32:28.576Z,12.30
2022-12-22T10:35:49.073Z,12.20
2022-12-22T10:39:04.389Z,12.20
2022-12-22T10:42:14.419Z,12.10
2022-12-22T10:45:23.215Z,12.10
2022-12-22T10:48:33.530Z,12.10
2022-12-22T10:51:35.892Z,12.10
2022-12-22T10:54:38.278Z,12.10
2022-12-22T10:57:40.309Z,12.10
2022-12-22T11:00:43.083Z,12.10
2022-12-22T11:03:45.157Z,12.10
2022-12-22T11:06:48.069Z,12.10
2022-12-22T11:09:51.825Z,12.10
2022-12-22T11:13:17.042Z,12.20
2022-12-22T11:16:43.829Z,12.10
2022-12-22T11:20:04.204Z,12.20
2022-12-22T11:23:21.515Z,12.20
2022-12-22T11:26:43.806Z,12.20
2022-12-22T11:30:06.557Z,12.30
2022-12-22T11:33:24.861Z,12.30
2022-12-22T11:36:57.338Z,12.30
2022-12-22T11:40:12.118Z,12.30
2022-12-22T11:43:52.521Z,12.30
2022-12-22T11:47:14.329Z,12.30
2022-12-22T12:03:47.435Z,11.80
2022-12-22T12:07:38.652Z,11.90
2022-12-22T12:10:57.937Z,11.90
2022-12-22T12:14:17.891Z,11.90
2022-12-22T12:17:28.711Z,11.90
2022-12-22T12:20:52.129Z,11.90
2022-12-22T12:24:16.499Z,11.90
2022-12-22T12:27:36.325Z,11.90
2022-12-22T12:30:59.162Z,11.90
2022-12-22T12:34:09.886Z,11.90
2022-12-22T12:37:30.700Z,11.90
2022-12-22T12:40:32.427Z,11.90
2022-12-22T12:43:35.220Z,11.90
2022-12-22T12:46:52.141Z,11.90
2022-12-22T12:49:56.627Z,11.90
2022-12-22T12:53:11.111Z,11.90
2022-12-22T12:56:12.990Z,11.80
2022-12-22T12:59:40.515Z,11.90
2022-12-22T13:02:57.158Z,11.90
2022-12-22T13:06:04.116Z,11.80
2022-12-22T13:09:39.836Z,11.80
2022-12-22T13:12:37.950Z,11.80
2022-12-22T13:15:42.871Z,11.80
2022-12-22T13:18:51.931Z,11.90
2022-12-22T13:21:55.381Z,11.90
2022-12-22T13:25:02.067Z,11.90
2022-12-22T13:28:04.195Z,11.90
2022-12-22T13:31:50.687Z,12.00
2022-12-22T13:35:32.665Z,12.00
2022-12-22T13:38:37.737Z,11.90
2022-12-22T13:41:41.965Z,11.90
2022-12-22T13:44:44.299Z,11.90
2022-12-22T13:47:47.759Z,11.90
2022-12-22T13:50:58.422Z,11.90
2022-12-22T13:54:09.333Z,11.90
2022-12-22T13:57:17.988Z,11.90
2022-12-22T14:00:23.173Z,11.90
2022-12-22T14:03:50.263Z,11.90
2022-12-22T14:06:47.015Z,11.90
2022-12-22T14:09:55.265Z,11.90
2022-12-22T14:12:57.298Z,11.90
2022-12-22T14:16:03.581Z,11.90
2022-12-22T14:19:05.597Z,11.90
2022-12-22T14:22:11.209Z,11.90
2022-12-22T14:25:19.632Z,11.90
2022-12-22T14:28:41.386Z,11.90
2022-12-22T14:32:01.312Z,11.90
2022-12-22T14:35:03.569Z,11.90
2022-12-22T14:38:05.372Z,11.90
2022-12-22T14:41:13.397Z,11.90
2022-12-22T14:44:32.075Z,11.80
2022-12-22T14:47:37.498Z,11.90
2022-12-22T14:50:51.964Z,11.90
2022-12-22T14:53:56.737Z,11.90
2022-12-22T14:57:15.560Z,11.90
2022-12-22T15:00:23.841Z,11.90
2022-12-22T15:03:29.910Z,11.90
2022-12-22T15:06:31.929Z,11.90
2022-12-22T15:10:13.261Z,11.90
2022-12-22T15:12:59.908Z,11.90
2022-12-22T15:16:02.799Z,12.00
2022-12-22T15:19:05.863Z,12.00
2022-12-22T15:22:08.408Z,11.90
2022-12-22T15:25:20.289Z,12.00
2022-12-22T15:28:22.331Z,12.00
2022-12-22T15:31:24.484Z,12.10
2022-12-22T15:34:31.249Z,12.00
2022-12-22T15:37:33.215Z,12.00
2022-12-22T15:40:35.221Z,12.00
2022-12-22T15:43:57.262Z,12.10
2022-12-22T15:46:59.906Z,12.00
2022-12-22T15:50:02.394Z,12.00
2022-12-22T15:53:04.923Z,12.00
2022-12-22T15:56:17.220Z,12.00
2022-12-22T15:59:28.026Z,12.10
2022-12-22T16:02:30.221Z,12.10
2022-12-22T16:05:36.299Z,12.00
2022-12-22T16:08:40.565Z,12.00
2022-12-22T16:11:42.527Z,12.00
2022-12-22T16:14:50.491Z,12.00
2022-12-22T16:17:52.899Z,11.90
2022-12-22T16:20:55.680Z,11.90
2022-12-22T16:23:58.259Z,11.90
2022-12-22T16:27:00.257Z,11.90
2022-12-22T16:30:03.133Z,11.90
2022-12-22T16:33:04.995Z,11.90
2022-12-22T16:39:14.633Z,11.90
2022-12-22T16:45:36.865Z,11.80
2022-12-22T16:48:45.138Z,11.80
2022-12-22T16:51:50.309Z,11.70
2022-12-22T16:54:53.024Z,11.70
2022-12-22T16:57:55.470Z,11.60
2022-12-22T17:00:57.383Z,11.60
2022-12-22T17:04:05.810Z,11.60
2022-12-22T17:07:09.855Z,11.50
2022-12-22T17:10:15.511Z,11.60
2022-12-22T17:13:18.242Z,11.50
2022-12-22T17:16:23.008Z,11.50
2022-12-22T17:19:25.016Z,11.40
2022-12-22T17:22:29.696Z,11.50
2022-12-22T17:25:31.946Z,11.50
2022-12-22T17:28:35.846Z,11.50
2022-12-22T17:31:37.862Z,11.50
2022-12-22T17:34:40.011Z,11.50
2022-12-22T17:37:42.829Z,11.60
2022-12-22T17:40:45.409Z,11.60
2022-12-22T17:43:47.195Z,11.60
2022-12-22T17:46:55.701Z,11.70
2022-12-22T17:50:03.837Z,11.70
2022-12-22T17:53:07.012Z,11.70
2022-12-22T17:56:18.347Z,11.70
2022-12-22T17:59:20.292Z,11.70
2022-12-22T18:02:24.027Z,11.80
2022-12-22T18:05:28.897Z,11.70
2022-12-22T18:08:31.171Z,11.70
2022-12-22T18:11:33.545Z,11.70
2022-12-22T18:14:35.526Z,11.70
2022-12-22T18:17:37.559Z,11.80
2022-12-22T18:20:39.879Z,11.80
2022-12-22T18:23:49.691Z,11.90
2022-12-22T18:26:52.605Z,11.90
2022-12-22T18:30:00.654Z,11.90
2022-12-22T18:33:02.507Z,11.90
2022-12-22T18:39:18.126Z,12.00
2022-12-22T18:42:22.955Z,12.00
2022-12-22T18:45:27.125Z,12.00
2022-12-22T18:48:29.061Z,12.00
2022-12-22T18:51:31.055Z,12.10
2022-12-22T18:54:32.982Z,12.00
2022-12-22T18:57:35.365Z,12.00
2022-12-22T19:00:37.460Z,12.00
2022-12-22T19:03:39.507Z,12.00
2022-12-22T19:06:41.443Z,11.90
2022-12-22T19:09:43.822Z,11.90
2022-12-22T19:12:50.127Z,11.90
2022-12-22T19:15:52.643Z,11.80
2022-12-22T19:18:54.713Z,11.80
2022-12-22T19:21:56.532Z,11.90
2022-12-22T19:24:58.398Z,11.90
2022-12-22T19:28:07.271Z,11.90
2022-12-22T19:31:16.502Z,11.80
2022-12-22T19:34:21.194Z,11.80
2022-12-22T19:37:23.134Z,11.80
2022-12-22T19:40:29.583Z,11.80
2022-12-22T19:43:33.832Z,11.80
2022-12-22T19:46:36.071Z,11.80
2022-12-22T19:49:38.082Z,11.80
2022-12-22T19:52:39.916Z,11.70
2022-12-22T19:55:46.831Z,11.70
2022-12-22T19:58:49.127Z,11.70
2022-12-22T20:01:51.181Z,11.80
2022-12-22T20:05:01.009Z,11.70
2022-12-22T20:08:02.942Z,11.80
2022-12-22T20:11:12.936Z,11.80
2022-12-22T20:14:18.561Z,11.70
2022-12-22T20:17:21.138Z,11.70
2022-12-22T20:20:31.861Z,11.80
2022-12-22T20:23:36.264Z,11.70
2022-12-22T20:26:38.139Z,11.70
2022-12-22T20:29:40.009Z,11.70
2022-12-22T20:32:41.911Z,11.70
2022-12-22T20:35:51.642Z,11.60
2022-12-22T20:38:55.129Z,11.70
2022-12-22T20:41:57.101Z,11.70
2022-12-22T20:45:02.948Z,11.80
2022-12-22T20:48:06.363Z,11.70
2022-12-22T20:51:13.816Z,11.80
2022-12-22T20:54:16.658Z,11.70
2022-12-22T20:57:18.701Z,11.80
2022-12-22T21:00:26.951Z,11.70
2022-12-22T21:03:29.140Z,11.70
2022-12-22T21:06:36.961Z,11.70
2022-12-22T21:09:39.980Z,11.70
2022-12-22T21:12:41.975Z,11.70
2022-12-22T21:15:45.790Z,11.70
2022-12-22T21:18:47.631Z,11.60
2022-12-22T21:21:49.516Z,11.60
2022-12-22T21:24:51.467Z,11.60
2022-12-22T21:27:53.591Z,11.60
2022-12-22T21:30:55.573Z,11.60
2022-12-22T21:33:58.030Z,11.60
2022-12-22T21:37:02.567Z,11.60
2022-12-22T21:40:13.871Z,11.60
2022-12-22T21:43:16.478Z,11.60
2022-12-22T21:46:18.545Z,11.60
2022-12-22T21:49:23.020Z,11.60
2022-12-22T21:52:25.149Z,11.50
2022-12-22T21:55:35.383Z,11.60
2022-12-22T21:58:37.289Z,11.60
2022-12-22T22:01:41.159Z,11.60
2022-12-22T22:04:46.748Z,11.60
2022-12-22T22:07:55.407Z,11.60
2022-12-22T22:10:59.663Z,11.50
2022-12-22T22:14:01.504Z,11.50
2022-12-22T22:17:03.456Z,11.50
2022-12-22T22:20:07.983Z,11.60
2022-12-22T22:23:12.971Z,11.50
2022-12-22T22:26:14.785Z,11.50
2022-12-22T22:29:16.734Z,11.50
2022-12-22T22:32:19.106Z,11.40
2022-12-22T22:35:25.353Z,11.40
2022-12-22T22:38:27.147Z,11.40
2022-12-22T22:41:29.701Z,11.40
2022-12-22T22:44:31.491Z,11.40
2022-12-22T22:47:33.655Z,11.40
2022-12-22T22:50:35.574Z,11.40
2022-12-22T22:53:37.454Z,11.40
2022-12-22T22:56:39.671Z,11.40
2022-12-22T22:59:42.744Z,11.30
2022-12-22T23:02:45.349Z,11.40
2022-12-22T23:05:49.890Z,11.30
2022-12-22T23:08:51.839Z,11.30
2022-12-22T23:11:54.024Z,11.30
2022-12-22T23:14:56.050Z,11.30
2022-12-22T23:17:57.923Z,11.40
2022-12-22T23:21:03.398Z,11.40
2022-12-22T23:24:05.691Z,11.40
2022-12-22T23:27:07.616Z,11.40
2022-12-22T23:30:10.282Z,11.40
2022-12-22T23:33:12.203Z,11.40
2022-12-22T23:36:14.599Z,11.40
2022-12-22T23:39:16.515Z,11.40
2022-12-22T23:42:18.459Z,11.40
2022-12-22T23:45:20.668Z,11.40
2022-12-22T23:48:22.938Z,11.40
2022-12-22T23:51:27.067Z,11.40
2022-12-22T23:54:31.935Z,11.40
2022-12-22T23:57:33.860Z,11.50
